KATY

Watertown Regional Airport

Watertown, South Dakota, USA
METAR KATY 160153Z AUTO 25007KT 10SM CLR 01/M03 A2995 RMK AO2 SLP162 T00061028
Observed Flight Rules
Dec-16 @ 01:53 UTC (21 minutes ago) Visual Flight Rules
Wind Visibility Clouds
250° at 7 knots 10 miles
  • Clear skies
Temperatures Readings
Current 1°C / 34°F
Dewpoint -3°C / 27°F
Humidity 75%
Altimeter 29.95" Hg
Pressure 1016.2 hPa
Elevation 532
METAR KATY 160153Z AUTO 25007KT 10SM CLR 01/M03 A2995 RMK AO2 SLP162 T00061028
Observed Flight Rules
Dec-16 @ 01:53 UTC
(21 minutes ago)
VFR
Wind Visibility
250° at 7 knots 10 miles
Clouds
  • Clear skies
Temperature Dewpoint
1°C / 34°F -3°C / 27°F
Humidity Altimeter Pressure
75% 29.95" Hg 1016.2 hPa